sensor_id;sensor_type;location;lat;lon;timestamp;P1;durP1;ratioP1;P2;durP2;ratioP2
12072;SDS011;6098;49.004;8.372;2023-02-01T00:13:03;6.64;;;5.12;;
12072;SDS011;6098;49.004;8.372;2023-02-01T00:27:53;6.91;;;4.97;;
12072;SDS011;6098;49.004;8.372;2023-02-01T00:42:44;8.00;;;5.34;;
12072;SDS011;6098;49.004;8.372;2023-02-01T00:57:35;5.79;;;4.27;;
12072;SDS011;6098;49.004;8.372;2023-02-01T01:12:25;6.78;;;4.16;;
12072;SDS011;6098;49.004;8.372;2023-02-01T01:27:15;5.63;;;3.50;;
12072;SDS011;6098;49.004;8.372;2023-02-01T01:42:07;5.24;;;4.07;;
12072;SDS011;6098;49.004;8.372;2023-02-01T01:57:00;6.23;;;3.80;;
12072;SDS011;6098;49.004;8.372;2023-02-01T02:11:49;3.74;;;3.22;;
12072;SDS011;6098;49.004;8.372;2023-02-01T02:42:17;5.49;;;3.70;;
12072;SDS011;6098;49.004;8.372;2023-02-01T03:12:44;4.74;;;3.40;;
12072;SDS011;6098;49.004;8.372;2023-02-01T03:27:53;4.86;;;3.63;;
12072;SDS011;6098;49.004;8.372;2023-02-01T03:42:43;3.91;;;3.28;;
12072;SDS011;6098;49.004;8.372;2023-02-01T03:57:33;4.93;;;3.49;;
12072;SDS011;6098;49.004;8.372;2023-02-01T04:12:22;4.14;;;3.23;;
12072;SDS011;6098;49.004;8.372;2023-02-01T04:27:12;4.24;;;3.20;;
12072;SDS011;6098;49.004;8.372;2023-02-01T04:42:03;6.07;;;3.94;;
12072;SDS011;6098;49.004;8.372;2023-02-01T04:56:53;4.78;;;3.26;;
12072;SDS011;6098;49.004;8.372;2023-02-01T05:11:44;5.72;;;3.37;;
12072;SDS011;6098;49.004;8.372;2023-02-01T05:26:56;7.46;;;4.11;;
12072;SDS011;6098;49.004;8.372;2023-02-01T05:41:46;4.96;;;4.09;;
12072;SDS011;6098;49.004;8.372;2023-02-01T05:56:37;6.09;;;4.01;;
12072;SDS011;6098;49.004;8.372;2023-02-01T06:11:27;5.58;;;4.02;;
12072;SDS011;6098;49.004;8.372;2023-02-01T06:26:18;4.78;;;3.56;;
12072;SDS011;6098;49.004;8.372;2023-02-01T06:41:08;4.90;;;3.97;;
12072;SDS011;6098;49.004;8.372;2023-02-01T06:55:59;4.80;;;3.74;;
12072;SDS011;6098;49.004;8.372;2023-02-01T07:10:48;4.46;;;3.63;;
12072;SDS011;6098;49.004;8.372;2023-02-01T07:25:39;5.51;;;4.09;;
12072;SDS011;6098;49.004;8.372;2023-02-01T07:40:29;7.16;;;4.23;;
12072;SDS011;6098;49.004;8.372;2023-02-01T07:55:19;8.51;;;4.49;;
12072;SDS011;6098;49.004;8.372;2023-02-01T08:10:09;6.36;;;3.46;;
12072;SDS011;6098;49.004;8.372;2023-02-01T08:25:00;7.27;;;3.80;;
12072;SDS011;6098;49.004;8.372;2023-02-01T08:39:51;5.49;;;3.33;;
12072;SDS011;6098;49.004;8.372;2023-02-01T08:54:41;6.91;;;3.51;;
12072;SDS011;6098;49.004;8.372;2023-02-01T09:10:58;4.36;;;3.07;;
12072;SDS011;6098;49.004;8.372;2023-02-01T09:25:49;4.60;;;2.91;;
12072;SDS011;6098;49.004;8.372;2023-02-01T09:40:42;7.51;;;3.01;;
12072;SDS011;6098;49.004;8.372;2023-02-01T09:55:38;6.70;;;3.86;;
12072;SDS011;6098;49.004;8.372;2023-02-01T10:10:42;7.50;;;3.03;;
12072;SDS011;6098;49.004;8.372;2023-02-01T10:40:46;6.42;;;3.08;;
12072;SDS011;6098;49.004;8.372;2023-02-01T11:10:39;7.66;;;3.00;;
12072;SDS011;6098;49.004;8.372;2023-02-01T11:25:33;7.03;;;2.89;;
12072;SDS011;6098;49.004;8.372;2023-02-01T12:56:43;6.46;;;3.01;;
12072;SDS011;6098;49.004;8.372;2023-02-01T13:11:35;7.33;;;3.43;;
12072;SDS011;6098;49.004;8.372;2023-02-01T13:26:25;9.51;;;3.03;;
12072;SDS011;6098;49.004;8.372;2023-02-01T13:41:20;8.54;;;2.53;;
12072;SDS011;6098;49.004;8.372;2023-02-01T14:41:34;8.80;;;2.88;;
12072;SDS011;6098;49.004;8.372;2023-02-01T14:56:26;10.60;;;2.76;;
12072;SDS011;6098;49.004;8.372;2023-02-01T15:11:17;13.32;;;3.31;;
12072;SDS011;6098;49.004;8.372;2023-02-01T15:26:07;9.83;;;3.12;;
12072;SDS011;6098;49.004;8.372;2023-02-01T15:55:54;10.63;;;2.90;;
12072;SDS011;6098;49.004;8.372;2023-02-01T16:10:46;8.40;;;2.77;;
12072;SDS011;6098;49.004;8.372;2023-02-01T16:25:36;16.03;;;3.59;;
12072;SDS011;6098;49.004;8.372;2023-02-01T16:40:25;11.77;;;2.86;;
12072;SDS011;6098;49.004;8.372;2023-02-01T16:55:17;7.94;;;2.79;;
12072;SDS011;6098;49.004;8.372;2023-02-01T17:10:11;8.74;;;3.10;;
12072;SDS011;6098;49.004;8.372;2023-02-01T17:24:57;9.18;;;3.60;;
12072;SDS011;6098;49.004;8.372;2023-02-01T17:39:47;10.91;;;2.83;;
12072;SDS011;6098;49.004;8.372;2023-02-01T17:54:48;10.43;;;3.00;;
12072;SDS011;6098;49.004;8.372;2023-02-01T18:09:39;10.28;;;3.04;;
12072;SDS011;6098;49.004;8.372;2023-02-01T18:24:29;8.28;;;3.07;;
12072;SDS011;6098;49.004;8.372;2023-02-01T18:39:20;8.86;;;2.67;;
12072;SDS011;6098;49.004;8.372;2023-02-01T18:54:11;8.84;;;2.56;;
12072;SDS011;6098;49.004;8.372;2023-02-01T19:09:01;9.88;;;2.40;;
12072;SDS011;6098;49.004;8.372;2023-02-01T19:23:52;9.31;;;2.89;;
12072;SDS011;6098;49.004;8.372;2023-02-01T19:38:43;6.28;;;2.46;;
12072;SDS011;6098;49.004;8.372;2023-02-01T19:53:48;8.28;;;3.10;;
12072;SDS011;6098;49.004;8.372;2023-02-01T20:08:38;7.66;;;2.78;;
12072;SDS011;6098;49.004;8.372;2023-02-01T20:23:28;8.92;;;3.26;;
12072;SDS011;6098;49.004;8.372;2023-02-01T20:38:19;8.86;;;3.30;;
12072;SDS011;6098;49.004;8.372;2023-02-01T20:53:10;9.46;;;2.89;;
12072;SDS011;6098;49.004;8.372;2023-02-01T21:08:01;11.21;;;3.53;;
12072;SDS011;6098;49.004;8.372;2023-02-01T21:22:53;8.22;;;2.87;;
12072;SDS011;6098;49.004;8.372;2023-02-01T21:37:44;8.13;;;2.60;;
12072;SDS011;6098;49.004;8.372;2023-02-01T21:52:34;9.49;;;3.02;;
12072;SDS011;6098;49.004;8.372;2023-02-01T22:07:26;8.44;;;3.16;;
12072;SDS011;6098;49.004;8.372;2023-02-01T22:22:17;6.84;;;2.78;;
12072;SDS011;6098;49.004;8.372;2023-02-01T22:37:10;6.39;;;2.38;;
12072;SDS011;6098;49.004;8.372;2023-02-01T22:51:59;6.69;;;3.02;;
12072;SDS011;6098;49.004;8.372;2023-02-01T23:06:50;9.77;;;2.96;;
12072;SDS011;6098;49.004;8.372;2023-02-01T23:21:46;8.31;;;3.12;;
12072;SDS011;6098;49.004;8.372;2023-02-01T23:36:36;11.40;;;2.77;;
12072;SDS011;6098;49.004;8.372;2023-02-01T23:51:27;7.81;;;2.83;;
